createdAt,value
2019-03-21T00:01:37.391Z,26.37
2019-03-21T00:04:09.405Z,25.37
2019-03-21T00:06:38.933Z,26.00
2019-03-21T00:09:10.547Z,29.90
2019-03-21T00:12:07.692Z,26.42
2019-03-21T00:15:06.680Z,26.70
2019-03-21T00:17:41.827Z,26.87
2019-03-21T00:20:14.133Z,28.07
2019-03-21T00:22:44.191Z,25.70
2019-03-21T00:25:15.894Z,28.10
2019-03-21T00:27:45.580Z,28.62
2019-03-21T00:30:17.903Z,30.20
2019-03-21T00:32:47.831Z,29.65
2019-03-21T00:35:18.231Z,29.48
2019-03-21T00:37:47.683Z,31.10
2019-03-21T00:40:19.942Z,30.32
2019-03-21T00:42:49.474Z,28.00
2019-03-21T00:45:18.899Z,31.13
2019-03-21T00:47:48.329Z,32.35
2019-03-21T00:50:18.859Z,31.68
2019-03-21T00:52:50.028Z,32.23
2019-03-21T00:55:19.410Z,34.60
2019-03-21T00:57:48.733Z,34.67
2019-03-21T01:00:24.389Z,31.75
2019-03-21T01:02:53.881Z,28.45
2019-03-21T01:05:23.298Z,30.95
2019-03-21T01:07:52.637Z,32.73
2019-03-21T01:10:23.192Z,33.50
2019-03-21T01:12:52.595Z,35.90
2019-03-21T01:15:21.926Z,30.97
2019-03-21T01:17:51.282Z,30.10
2019-03-21T01:20:20.629Z,31.80
2019-03-21T01:22:50.060Z,31.27
2019-03-21T01:25:23.969Z,31.80
2019-03-21T01:27:53.300Z,34.30
2019-03-21T01:30:22.609Z,31.48
2019-03-21T01:32:51.967Z,31.65
2019-03-21T01:35:21.350Z,32.55
2019-03-21T01:37:50.713Z,34.65
2019-03-21T01:40:21.858Z,36.95
2019-03-21T01:42:51.281Z,38.50
2019-03-21T01:45:22.308Z,37.70
2019-03-21T01:47:52.514Z,38.48
2019-03-21T01:50:22.346Z,42.50
2019-03-21T01:52:51.770Z,41.30
2019-03-21T01:55:21.120Z,37.77
2019-03-21T01:57:50.723Z,40.03
2019-03-21T02:00:23.138Z,37.57
2019-03-21T02:02:53.913Z,39.25
2019-03-21T02:05:23.416Z,37.25
2019-03-21T02:07:52.729Z,37.65
2019-03-21T02:10:22.052Z,36.38
2019-03-21T02:12:51.508Z,40.20
2019-03-21T02:15:20.920Z,40.50
2019-03-21T02:17:50.487Z,38.45
2019-03-21T02:20:19.834Z,41.55
2019-03-21T02:22:49.437Z,38.30
2019-03-21T02:25:24.119Z,35.85
2019-03-21T02:27:53.635Z,35.60
2019-03-21T02:30:28.509Z,37.73
2019-03-21T02:33:01.536Z,37.40
2019-03-21T02:35:33.750Z,36.15
2019-03-21T02:38:03.189Z,34.50
2019-03-21T02:40:32.564Z,35.00
2019-03-21T02:43:01.919Z,37.27
2019-03-21T02:45:31.360Z,35.10
2019-03-21T02:48:00.783Z,34.38
2019-03-21T02:50:32.187Z,38.75
2019-03-21T02:53:01.632Z,35.60
2019-03-21T02:55:31.237Z,34.40
2019-03-21T02:58:00.517Z,40.35
2019-03-21T03:00:30.763Z,34.43
2019-03-21T03:03:00.678Z,37.20
2019-03-21T03:05:31.006Z,39.63
2019-03-21T03:08:00.526Z,34.63
2019-03-21T03:10:35.822Z,35.80
2019-03-21T03:13:05.450Z,40.10
2019-03-21T03:15:34.843Z,37.53
2019-03-21T03:18:04.633Z,36.33
2019-03-21T03:20:34.111Z,36.15
2019-03-21T03:23:03.533Z,39.25
2019-03-21T03:25:33.089Z,37.85
2019-03-21T03:28:05.840Z,41.30
2019-03-21T03:30:35.259Z,35.73
2019-03-21T03:33:04.837Z,37.13
2019-03-21T03:35:34.211Z,36.63
2019-03-21T03:38:03.790Z,35.75
2019-03-21T03:40:36.634Z,36.90
2019-03-21T03:43:06.225Z,40.25
2019-03-21T03:45:37.746Z,34.23
2019-03-21T03:48:07.037Z,37.33
2019-03-21T03:50:36.532Z,36.35
2019-03-21T03:53:06.041Z,35.38
2019-03-21T03:55:35.577Z,39.95
2019-03-21T03:58:06.593Z,33.78
2019-03-21T04:00:36.129Z,35.10
2019-03-21T04:03:05.624Z,33.02
2019-03-21T04:05:35.154Z,35.00
2019-03-21T04:08:04.701Z,35.58
2019-03-21T04:10:35.972Z,34.95
2019-03-21T04:13:05.474Z,32.40
2019-03-21T04:15:34.869Z,34.13
2019-03-21T04:18:04.353Z,32.88
2019-03-21T04:20:34.869Z,33.23
2019-03-21T04:23:04.408Z,35.83
2019-03-21T04:25:40.479Z,32.17
2019-03-21T04:28:13.624Z,33.23
2019-03-21T04:30:43.618Z,31.62
2019-03-21T04:33:13.090Z,34.15
2019-03-21T04:35:42.517Z,32.73
2019-03-21T04:38:11.881Z,31.87
2019-03-21T04:40:41.408Z,34.03
2019-03-21T04:43:10.718Z,33.33
2019-03-21T04:45:40.087Z,34.25
2019-03-21T04:48:09.402Z,34.67
2019-03-21T04:50:38.795Z,35.55
2019-03-21T04:53:08.162Z,36.60
2019-03-21T04:55:37.610Z,35.17
2019-03-21T04:58:07.690Z,32.93
2019-03-21T05:00:37.527Z,34.88
2019-03-21T05:03:07.506Z,34.08
2019-03-21T05:05:36.981Z,31.90
2019-03-21T05:08:06.445Z,32.17
2019-03-21T05:10:35.823Z,32.95
2019-03-21T05:13:05.396Z,31.97
2019-03-21T05:15:36.889Z,33.10
2019-03-21T05:18:15.036Z,36.00
2019-03-21T05:20:44.462Z,35.63
2019-03-21T05:23:13.793Z,35.15
2019-03-21T05:25:43.264Z,35.17
2019-03-21T05:28:12.655Z,35.43
2019-03-21T05:30:49.140Z,36.42
2019-03-21T05:33:18.468Z,36.15
2019-03-21T05:35:47.896Z,34.03
2019-03-21T05:38:17.561Z,37.63
2019-03-21T05:40:47.097Z,35.65
2019-03-21T05:43:19.556Z,35.03
2019-03-21T05:45:49.106Z,34.43
2019-03-21T05:48:18.481Z,38.30
2019-03-21T05:50:47.855Z,40.30
2019-03-21T05:53:17.344Z,38.73
2019-03-21T05:55:46.764Z,37.38
2019-03-21T05:58:18.354Z,35.92
2019-03-21T06:00:51.182Z,36.50
2019-03-21T06:03:22.026Z,35.40
2019-03-21T06:05:57.768Z,36.17
2019-03-21T06:08:32.661Z,33.63
2019-03-21T06:11:02.048Z,35.20
2019-03-21T06:13:31.423Z,37.65
2019-03-21T06:16:11.029Z,35.03
2019-03-21T06:19:06.211Z,36.65
2019-03-21T06:22:05.922Z,34.30
2019-03-21T06:25:16.043Z,34.03
2019-03-21T06:27:45.522Z,37.88
2019-03-21T06:30:16.497Z,37.37
2019-03-21T06:32:45.903Z,37.45
2019-03-21T06:35:24.529Z,33.92
2019-03-21T06:37:53.971Z,35.75
2019-03-21T06:40:23.575Z,34.40
2019-03-21T06:42:52.972Z,34.40
2019-03-21T06:45:22.334Z,32.50
2019-03-21T06:47:54.092Z,35.63
2019-03-21T06:50:23.489Z,32.58
2019-03-21T06:52:52.835Z,28.65
2019-03-21T06:55:22.201Z,31.95
2019-03-21T06:57:51.728Z,29.77
2019-03-21T07:00:21.297Z,29.73
2019-03-21T07:02:50.758Z,30.05
2019-03-21T07:05:20.187Z,29.43
2019-03-21T07:07:49.553Z,29.50
2019-03-21T07:10:18.963Z,34.25
2019-03-21T07:12:48.662Z,30.17
2019-03-21T07:15:18.090Z,30.57
2019-03-21T07:17:47.572Z,28.55
2019-03-21T07:20:17.074Z,30.82
2019-03-21T07:22:46.501Z,29.10
2019-03-21T07:25:16.128Z,30.37
2019-03-21T07:27:45.488Z,33.45
2019-03-21T07:30:15.320Z,31.80
2019-03-21T07:32:44.709Z,29.87
2019-03-21T07:35:14.391Z,30.55
2019-03-21T07:37:43.904Z,31.00
2019-03-21T07:40:13.639Z,34.60
2019-03-21T07:42:43.061Z,33.83
2019-03-21T07:45:12.808Z,35.13
2019-03-21T07:47:42.142Z,31.20
2019-03-21T07:50:12.422Z,31.50
2019-03-21T07:52:41.931Z,31.62
2019-03-21T07:55:12.464Z,30.27
2019-03-21T07:57:41.783Z,39.15
2019-03-21T08:00:12.719Z,37.38
2019-03-21T08:02:42.170Z,35.30
2019-03-21T08:05:12.622Z,40.15
2019-03-21T08:07:42.173Z,37.05
2019-03-21T08:10:12.525Z,34.65
2019-03-21T08:12:41.914Z,32.53
2019-03-21T08:15:11.481Z,36.30
2019-03-21T08:17:41.003Z,38.13
2019-03-21T08:20:13.080Z,37.30
2019-03-21T08:22:42.531Z,34.75
2019-03-21T08:25:12.171Z,34.48
2019-03-21T08:27:41.684Z,39.93
2019-03-21T08:30:26.283Z,37.35
2019-03-21T08:32:55.747Z,34.03
2019-03-21T08:35:25.134Z,36.95
2019-03-21T08:37:54.691Z,33.83
2019-03-21T08:40:24.105Z,36.48
2019-03-21T08:42:53.410Z,35.43
2019-03-21T08:45:22.794Z,35.75
2019-03-21T08:47:52.269Z,34.60
2019-03-21T08:50:21.828Z,35.43
2019-03-21T08:52:51.329Z,38.15
2019-03-21T08:55:20.867Z,32.23
2019-03-21T08:57:50.332Z,33.58
2019-03-21T09:00:19.824Z,28.27
2019-03-21T09:02:49.140Z,32.70
2019-03-21T09:05:18.509Z,30.10
2019-03-21T09:07:47.996Z,26.65
2019-03-21T09:10:17.484Z,29.00
2019-03-21T09:12:46.843Z,27.90
2019-03-21T09:15:16.320Z,24.10
2019-03-21T09:17:45.643Z,29.13
2019-03-21T09:20:15.214Z,26.77
2019-03-21T09:22:44.822Z,26.73
2019-03-21T09:25:14.434Z,28.00
2019-03-21T09:27:43.836Z,30.85
2019-03-21T09:30:14.628Z,26.68
2019-03-21T09:32:44.229Z,26.73
2019-03-21T09:35:15.898Z,24.77
2019-03-21T09:37:45.313Z,24.87
2019-03-21T09:40:15.189Z,21.60
2019-03-21T09:42:44.604Z,25.17
2019-03-21T09:45:14.817Z,24.43
2019-03-21T09:47:44.187Z,22.82
2019-03-21T09:50:18.163Z,22.48
2019-03-21T09:52:49.217Z,22.45
2019-03-21T09:55:18.637Z,20.95
2019-03-21T09:57:47.948Z,24.90
2019-03-21T10:00:28.022Z,25.85
2019-03-21T10:02:57.388Z,24.70
2019-03-21T10:05:26.760Z,22.90
2019-03-21T10:07:56.129Z,24.57
2019-03-21T10:10:30.205Z,26.30
2019-03-21T10:12:59.751Z,25.50
2019-03-21T10:15:29.138Z,26.65
2019-03-21T10:17:58.618Z,24.23
2019-03-21T10:20:28.024Z,23.10
2019-03-21T10:22:57.504Z,20.48
2019-03-21T10:25:27.124Z,26.80
2019-03-21T10:27:56.690Z,27.52
2019-03-21T10:30:44.522Z,26.90
2019-03-21T10:33:14.584Z,26.87
2019-03-21T10:35:44.062Z,25.43
2019-03-21T10:38:13.615Z,23.98
2019-03-21T10:40:43.187Z,21.10
2019-03-21T10:43:12.556Z,24.05
2019-03-21T10:45:44.572Z,29.80
2019-03-21T10:48:13.990Z,31.23
2019-03-21T10:50:43.522Z,26.23
2019-03-21T10:53:12.846Z,26.37
2019-03-21T10:55:42.302Z,23.20
2019-03-21T10:58:11.731Z,27.82
2019-03-21T11:00:41.232Z,24.00
2019-03-21T11:03:10.851Z,23.55
2019-03-21T11:05:40.761Z,23.27
2019-03-21T11:08:12.318Z,26.90
2019-03-21T11:10:41.658Z,24.43
2019-03-21T11:13:11.028Z,26.35
2019-03-21T11:15:40.431Z,26.45
2019-03-21T11:18:09.852Z,24.63
2019-03-21T11:20:40.679Z,24.57
2019-03-21T11:23:10.145Z,24.07
2019-03-21T11:25:39.910Z,24.50
2019-03-21T11:28:11.139Z,26.27
2019-03-21T11:30:42.475Z,24.87
2019-03-21T11:33:11.983Z,26.20
2019-03-21T11:35:41.452Z,23.53
2019-03-21T11:38:11.359Z,23.45
2019-03-21T11:40:40.885Z,23.32
2019-03-21T11:43:14.317Z,22.00
2019-03-21T11:45:43.699Z,23.62
2019-03-21T11:48:13.166Z,24.72
2019-03-21T11:50:42.678Z,24.40
2019-03-21T11:53:12.019Z,24.92
2019-03-21T11:55:43.925Z,22.70
2019-03-21T11:58:13.088Z,26.33
2019-03-21T12:00:45.169Z,24.75
2019-03-21T12:03:13.570Z,22.67
2019-03-21T12:05:42.982Z,22.40
2019-03-21T12:08:14.164Z,24.35
2019-03-21T12:10:43.566Z,23.22
2019-03-21T12:13:13.001Z,22.25
2019-03-21T12:15:42.381Z,22.93
2019-03-21T12:18:11.718Z,22.42
2019-03-21T12:20:41.026Z,22.70
2019-03-21T12:23:10.386Z,22.87
2019-03-21T12:25:39.732Z,19.60
2019-03-21T12:28:09.123Z,20.30
2019-03-21T12:30:42.691Z,21.35
2019-03-21T12:33:12.618Z,20.43
2019-03-21T12:35:42.191Z,21.93
2019-03-21T12:38:12.699Z,22.17
2019-03-21T12:40:42.219Z,23.85
2019-03-21T12:43:11.741Z,25.37
2019-03-21T12:45:41.170Z,25.12
2019-03-21T12:48:10.621Z,26.35
2019-03-21T12:50:39.961Z,26.12
2019-03-21T12:53:09.364Z,28.87
2019-03-21T12:55:38.866Z,26.23
2019-03-21T12:58:08.269Z,29.12
2019-03-21T13:00:42.386Z,28.05
2019-03-21T13:03:12.495Z,30.82
2019-03-21T13:05:42.251Z,31.73
2019-03-21T13:08:12.014Z,28.65
2019-03-21T13:10:41.480Z,29.30
2019-03-21T13:13:10.958Z,31.57
2019-03-21T13:15:40.496Z,29.10
2019-03-21T13:18:10.667Z,31.00
2019-03-21T13:20:43.829Z,28.73
2019-03-21T13:23:13.770Z,28.27
2019-03-21T13:25:43.544Z,31.70
2019-03-21T13:28:13.325Z,31.00
2019-03-21T13:30:42.817Z,28.75
2019-03-21T13:33:12.206Z,30.62
2019-03-21T13:35:41.591Z,31.90
2019-03-21T13:38:14.521Z,32.40
2019-03-21T13:40:44.189Z,31.13
2019-03-21T13:43:13.605Z,31.05
2019-03-21T13:45:43.105Z,31.67
2019-03-21T13:48:15.549Z,28.32
2019-03-21T13:50:45.438Z,31.52
2019-03-21T13:53:18.846Z,31.57
2019-03-21T13:55:46.206Z,32.65
2019-03-21T13:58:15.661Z,36.60
2019-03-21T14:00:45.547Z,33.15
2019-03-21T14:03:24.538Z,32.10
2019-03-21T14:05:48.170Z,30.27
2019-03-21T14:08:18.219Z,31.50
2019-03-21T14:10:47.673Z,34.08
2019-03-21T14:13:17.120Z,33.70
2019-03-21T14:15:46.566Z,33.50
2019-03-21T14:18:15.896Z,33.23
2019-03-21T14:20:45.306Z,35.10
2019-03-21T14:23:17.327Z,32.42
2019-03-21T14:25:45.789Z,31.23
2019-03-21T14:28:15.187Z,32.33
2019-03-21T14:30:47.661Z,31.52
2019-03-21T14:33:22.044Z,32.70
2019-03-21T14:35:51.577Z,31.52
2019-03-21T14:38:26.343Z,35.33
2019-03-21T14:40:52.093Z,35.15
2019-03-21T14:43:21.457Z,34.18
2019-03-21T14:45:50.954Z,37.70
2019-03-21T14:48:20.333Z,32.90
2019-03-21T14:50:49.791Z,33.73
2019-03-21T14:53:28.366Z,35.68
2019-03-21T14:55:50.215Z,31.55
2019-03-21T14:58:19.887Z,36.10
2019-03-21T15:00:51.032Z,35.00
2019-03-21T15:03:21.064Z,33.75
2019-03-21T15:05:50.469Z,36.05
2019-03-21T15:08:19.895Z,34.13
2019-03-21T15:10:49.247Z,33.00
2019-03-21T15:13:23.744Z,33.78
2019-03-21T15:15:53.124Z,34.35
2019-03-21T15:18:22.558Z,34.63
2019-03-21T15:20:52.012Z,33.10
2019-03-21T15:23:21.340Z,33.33
2019-03-21T15:25:50.904Z,31.57
2019-03-21T15:28:20.619Z,35.65
2019-03-21T15:30:50.060Z,32.10
2019-03-21T15:33:19.566Z,31.75
2019-03-21T15:35:48.950Z,32.43
2019-03-21T15:38:18.512Z,47.58
2019-03-21T15:40:47.942Z,44.08
2019-03-21T15:43:17.512Z,32.60
2019-03-21T15:45:46.945Z,36.10
2019-03-21T15:48:16.445Z,34.08
2019-03-21T15:50:45.789Z,30.40
2019-03-21T15:53:15.188Z,33.83
2019-03-21T15:55:44.568Z,29.75
2019-03-21T15:58:14.065Z,29.52
2019-03-21T16:00:43.720Z,32.35
2019-03-21T16:03:15.447Z,30.45
2019-03-21T16:05:45.035Z,30.43
2019-03-21T16:08:14.474Z,29.63
2019-03-21T16:10:43.882Z,29.70
2019-03-21T16:13:13.331Z,31.90
2019-03-21T16:15:42.691Z,31.75
2019-03-21T16:18:12.160Z,29.00
2019-03-21T16:20:41.524Z,29.23
2019-03-21T16:23:11.127Z,31.95
2019-03-21T16:25:40.713Z,31.07
2019-03-21T16:28:10.123Z,28.75
2019-03-21T16:30:39.491Z,33.13
2019-03-21T16:33:09.225Z,31.75
2019-03-21T16:35:39.571Z,30.88
2019-03-21T16:38:08.978Z,30.30
2019-03-21T16:40:38.583Z,30.85
2019-03-21T16:43:08.142Z,30.80
2019-03-21T16:45:37.784Z,29.40
2019-03-21T16:48:09.139Z,30.40
2019-03-21T16:50:38.417Z,31.55
2019-03-21T16:53:07.751Z,31.33
2019-03-21T16:55:37.091Z,29.67
2019-03-21T16:58:06.597Z,31.45
2019-03-21T17:00:36.178Z,32.90
2019-03-21T17:03:05.839Z,31.87
2019-03-21T17:05:35.372Z,33.18
2019-03-21T17:08:11.073Z,35.38
2019-03-21T17:10:36.110Z,33.23
2019-03-21T17:13:10.273Z,32.13
2019-03-21T17:15:40.009Z,33.98
2019-03-21T17:18:09.443Z,30.52
2019-03-21T17:20:38.970Z,31.90
2019-03-21T17:23:08.399Z,34.65
2019-03-21T17:25:37.807Z,30.35
2019-03-21T17:28:07.168Z,31.27
2019-03-21T17:30:36.975Z,31.55
2019-03-21T17:33:06.507Z,31.35
2019-03-21T17:35:35.982Z,35.00
2019-03-21T17:38:05.495Z,33.38
2019-03-21T17:40:34.895Z,33.38
2019-03-21T17:43:04.354Z,31.02
2019-03-21T17:45:33.843Z,30.77
2019-03-21T17:48:03.280Z,33.05
2019-03-21T17:50:32.728Z,29.82
2019-03-21T17:53:02.238Z,32.55
2019-03-21T17:55:31.713Z,34.23
2019-03-21T17:58:01.351Z,33.28
2019-03-21T18:00:32.577Z,35.95
2019-03-21T18:03:02.205Z,34.90
2019-03-21T18:05:31.637Z,32.38
2019-03-21T18:08:01.244Z,34.73
2019-03-21T18:10:32.223Z,34.33
2019-03-21T18:13:02.347Z,33.58
2019-03-21T18:15:31.829Z,35.75
2019-03-21T18:18:01.608Z,35.78
2019-03-21T18:20:31.118Z,33.07
2019-03-21T18:23:00.522Z,36.30
2019-03-21T18:25:29.968Z,36.98
2019-03-21T18:27:59.373Z,35.95
2019-03-21T18:30:28.811Z,34.55
2019-03-21T18:32:58.372Z,35.92
2019-03-21T18:35:27.740Z,34.27
2019-03-21T18:37:57.137Z,35.07
2019-03-21T18:40:26.579Z,36.35
2019-03-21T18:42:55.905Z,36.42
2019-03-21T18:45:25.324Z,37.88
2019-03-21T18:47:54.693Z,38.15
2019-03-21T18:50:23.995Z,37.53
2019-03-21T18:52:53.518Z,37.05
2019-03-21T18:55:23.155Z,36.10
2019-03-21T18:57:52.698Z,38.67
2019-03-21T19:00:22.508Z,39.65
2019-03-21T19:02:51.924Z,38.53
2019-03-21T19:05:21.500Z,36.50
2019-03-21T19:07:50.946Z,38.17
2019-03-21T19:10:20.381Z,39.40
2019-03-21T19:12:49.869Z,38.95
2019-03-21T19:15:19.402Z,40.80
2019-03-21T19:17:48.921Z,38.60
2019-03-21T19:20:18.388Z,38.53
2019-03-21T19:22:48.094Z,44.88
2019-03-21T19:25:19.329Z,37.87
2019-03-21T19:27:48.868Z,76.85
2019-03-21T19:30:19.236Z,164.55
2019-03-21T19:32:48.825Z,93.12
2019-03-21T19:35:18.469Z,84.95
2019-03-21T19:37:48.189Z,47.80
2019-03-21T19:40:17.820Z,38.70
2019-03-21T19:42:47.350Z,43.30
2019-03-21T19:45:17.291Z,39.18
2019-03-21T19:47:46.787Z,41.90
2019-03-21T19:50:16.453Z,39.88
2019-03-21T19:52:45.913Z,39.13
2019-03-21T19:55:15.404Z,38.85
2019-03-21T19:57:44.886Z,43.63
2019-03-21T20:00:16.582Z,38.78
2019-03-21T20:02:46.017Z,43.30
2019-03-21T20:05:15.850Z,41.58
2019-03-21T20:07:45.303Z,43.48
2019-03-21T20:10:15.494Z,44.58
2019-03-21T20:12:44.968Z,42.30
2019-03-21T20:15:14.519Z,37.25
2019-03-21T20:17:44.002Z,40.00
2019-03-21T20:20:13.694Z,41.23
2019-03-21T20:22:43.267Z,39.58
2019-03-21T20:25:12.967Z,39.50
2019-03-21T20:27:42.510Z,46.00
2019-03-21T20:30:15.515Z,44.90
2019-03-21T20:32:44.941Z,41.30
2019-03-21T20:35:14.684Z,50.10
2019-03-21T20:37:44.254Z,42.40
2019-03-21T20:40:14.404Z,38.67
2019-03-21T20:42:45.604Z,43.48
2019-03-21T20:45:15.694Z,40.55
2019-03-21T20:47:45.683Z,47.30
2019-03-21T20:50:15.927Z,44.93
2019-03-21T20:52:45.546Z,38.45
2019-03-21T20:55:15.265Z,41.90
2019-03-21T20:57:44.944Z,38.67
2019-03-21T21:00:17.074Z,41.55
2019-03-21T21:02:46.542Z,39.40
2019-03-21T21:05:16.100Z,41.53
2019-03-21T21:07:45.474Z,38.38
2019-03-21T21:10:15.499Z,40.70
2019-03-21T21:12:45.059Z,41.35
2019-03-21T21:15:15.087Z,41.80
2019-03-21T21:17:44.610Z,43.00
2019-03-21T21:20:14.836Z,37.38
2019-03-21T21:22:44.420Z,38.80
2019-03-21T21:25:14.569Z,41.30
2019-03-21T21:27:49.393Z,39.45
2019-03-21T21:30:17.081Z,43.00
2019-03-21T21:32:46.452Z,40.90
2019-03-21T21:35:16.087Z,41.18
2019-03-21T21:37:45.777Z,41.00
2019-03-21T21:40:16.045Z,41.10
2019-03-21T21:42:45.420Z,38.67
2019-03-21T21:45:15.224Z,40.00
2019-03-21T21:47:44.639Z,41.50
2019-03-21T21:50:14.406Z,39.70
2019-03-21T21:52:43.870Z,41.88
2019-03-21T21:55:14.034Z,42.00
2019-03-21T21:57:48.219Z,40.60
2019-03-21T22:00:18.248Z,45.55
2019-03-21T22:02:47.799Z,40.98
2019-03-21T22:05:17.569Z,49.05
2019-03-21T22:07:47.036Z,42.53
2019-03-21T22:10:16.593Z,40.92
2019-03-21T22:12:46.100Z,41.25
2019-03-21T22:15:18.324Z,41.20
2019-03-21T22:17:50.219Z,43.17
2019-03-21T22:20:21.278Z,41.65
2019-03-21T22:22:50.835Z,42.03
2019-03-21T22:25:20.501Z,44.93
2019-03-21T22:27:49.948Z,44.75
2019-03-21T22:30:20.420Z,70.72
2019-03-21T22:32:49.816Z,42.88
2019-03-21T22:35:19.225Z,42.75
2019-03-21T22:37:48.751Z,44.08
2019-03-21T22:40:18.840Z,49.03
2019-03-21T22:42:48.322Z,45.17
2019-03-21T22:45:18.205Z,43.08
2019-03-21T22:47:50.367Z,41.70
2019-03-21T22:50:18.873Z,42.75
2019-03-21T22:52:48.309Z,46.33
2019-03-21T22:55:17.778Z,44.08
2019-03-21T22:57:47.286Z,44.63
2019-03-21T23:00:18.632Z,43.10
2019-03-21T23:02:48.134Z,41.80
2019-03-21T23:05:17.604Z,47.10
2019-03-21T23:07:47.060Z,43.65
2019-03-21T23:10:16.658Z,46.00
2019-03-21T23:12:46.073Z,51.10
2019-03-21T23:15:15.715Z,45.60
2019-03-21T23:17:45.143Z,48.05
2019-03-21T23:20:15.069Z,45.83
2019-03-21T23:22:44.518Z,45.98
2019-03-21T23:25:16.457Z,49.25
2019-03-21T23:27:46.859Z,51.35
2019-03-21T23:30:16.602Z,46.05
2019-03-21T23:32:46.032Z,46.50
2019-03-21T23:35:15.713Z,48.97
2019-03-21T23:37:45.215Z,48.23
2019-03-21T23:40:15.483Z,48.15
2019-03-21T23:42:44.941Z,48.33
2019-03-21T23:45:15.030Z,48.07
2019-03-21T23:47:44.556Z,46.63
2019-03-21T23:50:14.061Z,47.03
2019-03-21T23:52:43.763Z,50.58
2019-03-21T23:55:14.100Z,46.50
2019-03-21T23:57:44.116Z,48.10
